sensor_id;sensor_type;location;lat;lon;timestamp;P1;durP1;ratioP1;P2;durP2;ratioP2
17796;SDS011;55596;53.554;9.916;2024-01-30T00:00:27;12.30;;;9.40;;
17796;SDS011;55596;53.554;9.916;2024-01-30T00:02:54;16.30;;;10.47;;
17796;SDS011;55596;53.554;9.916;2024-01-30T00:05:21;13.70;;;10.27;;
17796;SDS011;55596;53.554;9.916;2024-01-30T00:07:48;16.47;;;9.70;;
17796;SDS011;55596;53.554;9.916;2024-01-30T00:10:16;14.63;;;9.57;;
17796;SDS011;55596;53.554;9.916;2024-01-30T00:12:43;21.03;;;10.07;;
17796;SDS011;55596;53.554;9.916;2024-01-30T00:15:10;17.07;;;9.43;;
17796;SDS011;55596;53.554;9.916;2024-01-30T00:17:37;15.30;;;9.93;;
17796;SDS011;55596;53.554;9.916;2024-01-30T00:20:05;13.67;;;9.63;;
17796;SDS011;55596;53.554;9.916;2024-01-30T00:22:34;14.30;;;9.30;;
17796;SDS011;55596;53.554;9.916;2024-01-30T00:25:01;13.93;;;9.13;;
17796;SDS011;55596;53.554;9.916;2024-01-30T00:27:29;14.50;;;9.57;;
17796;SDS011;55596;53.554;9.916;2024-01-30T00:29:56;14.00;;;8.93;;
17796;SDS011;55596;53.554;9.916;2024-01-30T00:32:23;13.97;;;10.03;;
17796;SDS011;55596;53.554;9.916;2024-01-30T00:34:50;14.27;;;10.00;;
17796;SDS011;55596;53.554;9.916;2024-01-30T00:37:17;20.03;;;10.70;;
17796;SDS011;55596;53.554;9.916;2024-01-30T00:39:44;15.47;;;10.07;;
17796;SDS011;55596;53.554;9.916;2024-01-30T00:42:11;13.83;;;9.77;;
17796;SDS011;55596;53.554;9.916;2024-01-30T00:44:39;17.07;;;10.33;;
17796;SDS011;55596;53.554;9.916;2024-01-30T00:47:06;12.97;;;9.20;;
17796;SDS011;55596;53.554;9.916;2024-01-30T00:49:33;17.53;;;10.30;;
17796;SDS011;55596;53.554;9.916;2024-01-30T00:52:00;13.47;;;9.70;;
17796;SDS011;55596;53.554;9.916;2024-01-30T00:54:27;11.77;;;9.30;;
17796;SDS011;55596;53.554;9.916;2024-01-30T00:56:54;18.00;;;10.27;;
17796;SDS011;55596;53.554;9.916;2024-01-30T00:59:21;15.83;;;10.23;;
17796;SDS011;55596;53.554;9.916;2024-01-30T01:01:50;16.07;;;9.17;;
17796;SDS011;55596;53.554;9.916;2024-01-30T01:04:17;13.47;;;9.10;;
17796;SDS011;55596;53.554;9.916;2024-01-30T01:06:46;11.30;;;9.63;;
17796;SDS011;55596;53.554;9.916;2024-01-30T01:09:13;14.13;;;9.67;;
17796;SDS011;55596;53.554;9.916;2024-01-30T01:11:40;13.53;;;9.37;;
17796;SDS011;55596;53.554;9.916;2024-01-30T01:14:07;13.60;;;9.40;;
17796;SDS011;55596;53.554;9.916;2024-01-30T01:16:34;13.63;;;9.73;;
17796;SDS011;55596;53.554;9.916;2024-01-30T01:19:03;14.53;;;9.00;;
17796;SDS011;55596;53.554;9.916;2024-01-30T01:21:30;12.53;;;9.00;;
17796;SDS011;55596;53.554;9.916;2024-01-30T01:23:57;13.50;;;8.37;;
17796;SDS011;55596;53.554;9.916;2024-01-30T01:26:24;11.97;;;8.87;;
17796;SDS011;55596;53.554;9.916;2024-01-30T01:28:51;13.97;;;9.10;;
17796;SDS011;55596;53.554;9.916;2024-01-30T01:31:18;12.90;;;9.47;;
17796;SDS011;55596;53.554;9.916;2024-01-30T01:33:49;16.70;;;9.37;;
17796;SDS011;55596;53.554;9.916;2024-01-30T01:36:17;13.13;;;9.70;;
17796;SDS011;55596;53.554;9.916;2024-01-30T01:38:44;11.83;;;9.27;;
17796;SDS011;55596;53.554;9.916;2024-01-30T01:41:11;13.37;;;9.03;;
17796;SDS011;55596;53.554;9.916;2024-01-30T01:43:38;13.13;;;9.20;;
17796;SDS011;55596;53.554;9.916;2024-01-30T01:46:06;13.10;;;9.57;;
17796;SDS011;55596;53.554;9.916;2024-01-30T01:48:33;12.47;;;9.77;;
17796;SDS011;55596;53.554;9.916;2024-01-30T01:51:00;13.27;;;9.13;;
17796;SDS011;55596;53.554;9.916;2024-01-30T01:53:28;11.33;;;8.97;;
17796;SDS011;55596;53.554;9.916;2024-01-30T01:55:55;12.87;;;8.90;;
17796;SDS011;55596;53.554;9.916;2024-01-30T01:58:23;14.73;;;8.40;;
17796;SDS011;55596;53.554;9.916;2024-01-30T02:00:53;12.53;;;8.37;;
17796;SDS011;55596;53.554;9.916;2024-01-30T02:03:20;12.60;;;9.23;;
17796;SDS011;55596;53.554;9.916;2024-01-30T02:05:47;12.30;;;8.93;;
17796;SDS011;55596;53.554;9.916;2024-01-30T02:08:15;12.10;;;8.83;;
17796;SDS011;55596;53.554;9.916;2024-01-30T02:10:43;14.53;;;8.37;;
17796;SDS011;55596;53.554;9.916;2024-01-30T02:13:10;13.10;;;9.27;;
17796;SDS011;55596;53.554;9.916;2024-01-30T02:15:37;11.70;;;8.20;;
17796;SDS011;55596;53.554;9.916;2024-01-30T02:18:04;11.73;;;7.80;;
17796;SDS011;55596;53.554;9.916;2024-01-30T02:20:31;10.00;;;8.10;;
17796;SDS011;55596;53.554;9.916;2024-01-30T02:23:03;10.03;;;7.90;;
17796;SDS011;55596;53.554;9.916;2024-01-30T02:25:31;10.47;;;8.10;;
17796;SDS011;55596;53.554;9.916;2024-01-30T02:27:58;11.53;;;8.13;;
17796;SDS011;55596;53.554;9.916;2024-01-30T02:30:25;11.00;;;7.40;;
17796;SDS011;55596;53.554;9.916;2024-01-30T02:32:52;10.57;;;7.40;;
17796;SDS011;55596;53.554;9.916;2024-01-30T02:35:19;11.43;;;7.53;;
17796;SDS011;55596;53.554;9.916;2024-01-30T02:37:46;9.60;;;7.13;;
17796;SDS011;55596;53.554;9.916;2024-01-30T02:40:14;9.07;;;7.40;;
17796;SDS011;55596;53.554;9.916;2024-01-30T02:42:42;9.13;;;7.37;;
17796;SDS011;55596;53.554;9.916;2024-01-30T02:45:09;10.53;;;7.30;;
17796;SDS011;55596;53.554;9.916;2024-01-30T02:47:36;13.47;;;7.70;;
17796;SDS011;55596;53.554;9.916;2024-01-30T02:50:04;12.43;;;7.60;;
17796;SDS011;55596;53.554;9.916;2024-01-30T02:52:31;8.47;;;6.97;;
17796;SDS011;55596;53.554;9.916;2024-01-30T02:54:58;10.63;;;7.57;;
17796;SDS011;55596;53.554;9.916;2024-01-30T02:57:27;9.30;;;7.70;;
17796;SDS011;55596;53.554;9.916;2024-01-30T02:59:54;10.13;;;7.50;;
17796;SDS011;55596;53.554;9.916;2024-01-30T03:02:21;12.47;;;7.33;;
17796;SDS011;55596;53.554;9.916;2024-01-30T03:04:48;15.30;;;7.70;;
17796;SDS011;55596;53.554;9.916;2024-01-30T03:07:15;13.90;;;8.80;;
17796;SDS011;55596;53.554;9.916;2024-01-30T03:09:42;12.03;;;7.13;;
17796;SDS011;55596;53.554;9.916;2024-01-30T03:12:09;11.03;;;7.60;;
17796;SDS011;55596;53.554;9.916;2024-01-30T03:14:37;10.57;;;7.20;;
17796;SDS011;55596;53.554;9.916;2024-01-30T03:17:04;9.07;;;7.37;;
17796;SDS011;55596;53.554;9.916;2024-01-30T03:19:31;11.80;;;7.53;;
17796;SDS011;55596;53.554;9.916;2024-01-30T03:21:58;10.20;;;7.70;;
17796;SDS011;55596;53.554;9.916;2024-01-30T03:24:25;11.63;;;7.73;;
17796;SDS011;55596;53.554;9.916;2024-01-30T03:26:52;8.37;;;7.43;;
17796;SDS011;55596;53.554;9.916;2024-01-30T03:29:19;10.87;;;7.43;;
17796;SDS011;55596;53.554;9.916;2024-01-30T03:31:48;12.40;;;8.70;;
17796;SDS011;55596;53.554;9.916;2024-01-30T03:34:15;13.77;;;8.10;;
17796;SDS011;55596;53.554;9.916;2024-01-30T03:36:42;12.37;;;8.53;;
17796;SDS011;55596;53.554;9.916;2024-01-30T03:39:09;10.30;;;7.63;;
17796;SDS011;55596;53.554;9.916;2024-01-30T03:41:36;12.73;;;8.00;;
17796;SDS011;55596;53.554;9.916;2024-01-30T03:44:03;10.83;;;8.10;;
17796;SDS011;55596;53.554;9.916;2024-01-30T03:46:30;14.80;;;9.60;;
17796;SDS011;55596;53.554;9.916;2024-01-30T03:48:58;12.87;;;8.67;;
17796;SDS011;55596;53.554;9.916;2024-01-30T03:51:25;12.60;;;8.70;;
17796;SDS011;55596;53.554;9.916;2024-01-30T03:53:52;12.30;;;8.80;;
17796;SDS011;55596;53.554;9.916;2024-01-30T03:56:19;11.67;;;8.83;;
17796;SDS011;55596;53.554;9.916;2024-01-30T03:58:46;12.37;;;8.53;;
17796;SDS011;55596;53.554;9.916;2024-01-30T04:01:14;11.73;;;9.07;;
17796;SDS011;55596;53.554;9.916;2024-01-30T04:03:41;11.77;;;9.27;;
17796;SDS011;55596;53.554;9.916;2024-01-30T04:06:10;12.83;;;9.10;;
17796;SDS011;55596;53.554;9.916;2024-01-30T04:08:37;13.20;;;9.00;;
17796;SDS011;55596;53.554;9.916;2024-01-30T04:11:04;14.33;;;10.27;;
17796;SDS011;55596;53.554;9.916;2024-01-30T04:13:31;15.03;;;9.93;;
17796;SDS011;55596;53.554;9.916;2024-01-30T04:15:59;13.63;;;10.23;;
17796;SDS011;55596;53.554;9.916;2024-01-30T04:18:26;14.40;;;10.00;;
17796;SDS011;55596;53.554;9.916;2024-01-30T04:20:53;17.10;;;11.00;;
17796;SDS011;55596;53.554;9.916;2024-01-30T04:23:22;20.27;;;10.50;;
17796;SDS011;55596;53.554;9.916;2024-01-30T04:25:49;18.70;;;11.13;;
17796;SDS011;55596;53.554;9.916;2024-01-30T04:28:16;21.27;;;12.37;;
17796;SDS011;55596;53.554;9.916;2024-01-30T04:30:43;14.90;;;10.30;;
17796;SDS011;55596;53.554;9.916;2024-01-30T04:33:10;16.53;;;9.90;;
17796;SDS011;55596;53.554;9.916;2024-01-30T04:35:37;14.93;;;10.20;;
17796;SDS011;55596;53.554;9.916;2024-01-30T04:38:04;14.77;;;10.50;;
17796;SDS011;55596;53.554;9.916;2024-01-30T04:40:32;16.97;;;9.70;;
17796;SDS011;55596;53.554;9.916;2024-01-30T04:42:59;14.83;;;10.40;;
17796;SDS011;55596;53.554;9.916;2024-01-30T04:45:26;17.33;;;9.83;;
17796;SDS011;55596;53.554;9.916;2024-01-30T04:47:53;14.13;;;10.30;;
17796;SDS011;55596;53.554;9.916;2024-01-30T04:50:20;14.83;;;10.20;;
17796;SDS011;55596;53.554;9.916;2024-01-30T04:52:47;13.47;;;10.23;;
17796;SDS011;55596;53.554;9.916;2024-01-30T04:55:14;11.70;;;9.90;;
17796;SDS011;55596;53.554;9.916;2024-01-30T04:57:43;13.50;;;10.33;;
17796;SDS011;55596;53.554;9.916;2024-01-30T05:00:10;15.87;;;10.07;;
17796;SDS011;55596;53.554;9.916;2024-01-30T05:02:37;15.67;;;10.57;;
17796;SDS011;55596;53.554;9.916;2024-01-30T05:05:05;16.83;;;11.30;;
17796;SDS011;55596;53.554;9.916;2024-01-30T05:07:32;16.57;;;11.40;;
17796;SDS011;55596;53.554;9.916;2024-01-30T05:10:00;14.67;;;10.10;;
17796;SDS011;55596;53.554;9.916;2024-01-30T05:12:27;15.90;;;11.17;;
17796;SDS011;55596;53.554;9.916;2024-01-30T05:14:55;15.07;;;10.43;;
17796;SDS011;55596;53.554;9.916;2024-01-30T05:17:22;18.80;;;11.40;;
17796;SDS011;55596;53.554;9.916;2024-01-30T05:19:49;13.67;;;11.10;;
17796;SDS011;55596;53.554;9.916;2024-01-30T05:22:16;16.77;;;11.10;;
17796;SDS011;55596;53.554;9.916;2024-01-30T05:24:43;15.13;;;10.83;;
17796;SDS011;55596;53.554;9.916;2024-01-30T05:27:10;14.37;;;11.23;;
17796;SDS011;55596;53.554;9.916;2024-01-30T05:29:38;16.57;;;11.03;;
17796;SDS011;55596;53.554;9.916;2024-01-30T05:32:07;14.23;;;11.30;;
17796;SDS011;55596;53.554;9.916;2024-01-30T05:34:35;15.40;;;10.73;;
17796;SDS011;55596;53.554;9.916;2024-01-30T05:37:02;15.67;;;10.90;;
17796;SDS011;55596;53.554;9.916;2024-01-30T05:39:29;18.50;;;11.57;;
17796;SDS011;55596;53.554;9.916;2024-01-30T05:41:57;16.87;;;12.07;;
17796;SDS011;55596;53.554;9.916;2024-01-30T05:44:25;16.07;;;11.43;;
17796;SDS011;55596;53.554;9.916;2024-01-30T05:46:51;16.57;;;10.93;;
17796;SDS011;55596;53.554;9.916;2024-01-30T05:49:20;14.57;;;10.67;;
17796;SDS011;55596;53.554;9.916;2024-01-30T05:51:47;13.00;;;10.97;;
17796;SDS011;55596;53.554;9.916;2024-01-30T05:54:14;14.47;;;10.97;;
17796;SDS011;55596;53.554;9.916;2024-01-30T05:56:41;16.10;;;11.30;;
17796;SDS011;55596;53.554;9.916;2024-01-30T05:59:08;12.93;;;10.90;;
17796;SDS011;55596;53.554;9.916;2024-01-30T06:01:35;17.40;;;11.67;;
17796;SDS011;55596;53.554;9.916;2024-01-30T06:04:02;15.63;;;11.57;;
17796;SDS011;55596;53.554;9.916;2024-01-30T06:06:31;15.00;;;10.87;;
17796;SDS011;55596;53.554;9.916;2024-01-30T06:08:58;18.83;;;11.50;;
17796;SDS011;55596;53.554;9.916;2024-01-30T06:11:25;17.93;;;11.43;;
17796;SDS011;55596;53.554;9.916;2024-01-30T06:13:52;13.73;;;11.23;;
17796;SDS011;55596;53.554;9.916;2024-01-30T06:16:19;15.20;;;11.07;;
17796;SDS011;55596;53.554;9.916;2024-01-30T06:18:47;20.43;;;11.63;;
17796;SDS011;55596;53.554;9.916;2024-01-30T06:21:14;15.73;;;11.03;;
17796;SDS011;55596;53.554;9.916;2024-01-30T06:23:43;16.07;;;11.17;;
17796;SDS011;55596;53.554;9.916;2024-01-30T06:26:10;13.87;;;11.30;;
17796;SDS011;55596;53.554;9.916;2024-01-30T06:28:37;15.10;;;11.20;;
17796;SDS011;55596;53.554;9.916;2024-01-30T06:31:04;13.67;;;11.07;;
17796;SDS011;55596;53.554;9.916;2024-01-30T06:33:31;21.60;;;11.00;;
17796;SDS011;55596;53.554;9.916;2024-01-30T06:35:58;12.97;;;10.33;;
17796;SDS011;55596;53.554;9.916;2024-01-30T06:38:25;16.80;;;11.27;;
17796;SDS011;55596;53.554;9.916;2024-01-30T06:40:53;20.43;;;10.80;;
17796;SDS011;55596;53.554;9.916;2024-01-30T06:43:20;14.17;;;10.57;;
17796;SDS011;55596;53.554;9.916;2024-01-30T06:45:48;15.57;;;11.23;;
17796;SDS011;55596;53.554;9.916;2024-01-30T06:48:16;15.50;;;10.67;;
17796;SDS011;55596;53.554;9.916;2024-01-30T06:50:43;15.97;;;11.00;;
17796;SDS011;55596;53.554;9.916;2024-01-30T06:53:11;17.33;;;11.90;;
17796;SDS011;55596;53.554;9.916;2024-01-30T06:55:38;14.53;;;10.93;;
17796;SDS011;55596;53.554;9.916;2024-01-30T06:58:06;16.27;;;11.60;;
17796;SDS011;55596;53.554;9.916;2024-01-30T07:00:33;14.80;;;11.40;;
17796;SDS011;55596;53.554;9.916;2024-01-30T07:03:01;14.43;;;11.87;;
17796;SDS011;55596;53.554;9.916;2024-01-30T07:05:28;15.13;;;11.63;;
17796;SDS011;55596;53.554;9.916;2024-01-30T07:07:55;18.10;;;11.13;;
17796;SDS011;55596;53.554;9.916;2024-01-30T07:10:22;18.10;;;11.80;;
17796;SDS011;55596;53.554;9.916;2024-01-30T07:12:49;16.80;;;11.87;;
17796;SDS011;55596;53.554;9.916;2024-01-30T07:15:17;16.30;;;11.53;;
17796;SDS011;55596;53.554;9.916;2024-01-30T07:17:45;16.10;;;12.03;;
17796;SDS011;55596;53.554;9.916;2024-01-30T07:20:12;18.97;;;12.27;;
17796;SDS011;55596;53.554;9.916;2024-01-30T07:22:39;17.77;;;11.77;;
17796;SDS011;55596;53.554;9.916;2024-01-30T07:25:07;20.43;;;13.27;;
17796;SDS011;55596;53.554;9.916;2024-01-30T07:27:34;18.40;;;12.67;;
17796;SDS011;55596;53.554;9.916;2024-01-30T07:30:01;19.00;;;12.93;;
17796;SDS011;55596;53.554;9.916;2024-01-30T07:32:30;19.83;;;13.20;;
17796;SDS011;55596;53.554;9.916;2024-01-30T07:34:57;20.73;;;12.80;;
17796;SDS011;55596;53.554;9.916;2024-01-30T07:37:24;21.33;;;13.20;;
17796;SDS011;55596;53.554;9.916;2024-01-30T07:39:51;24.90;;;13.00;;
17796;SDS011;55596;53.554;9.916;2024-01-30T07:42:18;15.90;;;12.10;;
17796;SDS011;55596;53.554;9.916;2024-01-30T07:44:45;21.63;;;12.30;;
17796;SDS011;55596;53.554;9.916;2024-01-30T07:47:12;18.03;;;12.40;;
17796;SDS011;55596;53.554;9.916;2024-01-30T07:49:41;16.70;;;12.30;;
17796;SDS011;55596;53.554;9.916;2024-01-30T07:52:08;19.63;;;12.27;;
17796;SDS011;55596;53.554;9.916;2024-01-30T07:54:35;15.43;;;12.37;;
17796;SDS011;55596;53.554;9.916;2024-01-30T07:57:04;17.90;;;12.70;;
17796;SDS011;55596;53.554;9.916;2024-01-30T07:59:31;16.67;;;12.30;;
17796;SDS011;55596;53.554;9.916;2024-01-30T08:01:58;16.53;;;12.20;;
17796;SDS011;55596;53.554;9.916;2024-01-30T08:04:25;17.70;;;12.23;;
17796;SDS011;55596;53.554;9.916;2024-01-30T08:06:53;20.17;;;11.80;;
17796;SDS011;55596;53.554;9.916;2024-01-30T08:09:20;19.40;;;12.43;;
17796;SDS011;55596;53.554;9.916;2024-01-30T08:11:47;18.83;;;12.43;;
17796;SDS011;55596;53.554;9.916;2024-01-30T08:14:14;19.27;;;12.67;;
17796;SDS011;55596;53.554;9.916;2024-01-30T08:16:41;16.93;;;11.47;;
17796;SDS011;55596;53.554;9.916;2024-01-30T08:19:08;17.60;;;12.30;;
17796;SDS011;55596;53.554;9.916;2024-01-30T08:21:35;17.53;;;12.13;;
17796;SDS011;55596;53.554;9.916;2024-01-30T08:24:04;18.10;;;12.57;;
17796;SDS011;55596;53.554;9.916;2024-01-30T08:26:31;20.73;;;12.93;;
17796;SDS011;55596;53.554;9.916;2024-01-30T08:28:59;15.10;;;11.77;;
17796;SDS011;55596;53.554;9.916;2024-01-30T08:31:26;18.07;;;11.83;;
17796;SDS011;55596;53.554;9.916;2024-01-30T08:33:53;17.43;;;11.90;;
17796;SDS011;55596;53.554;9.916;2024-01-30T08:36:20;18.00;;;11.83;;
17796;SDS011;55596;53.554;9.916;2024-01-30T08:38:47;20.53;;;12.30;;
17796;SDS011;55596;53.554;9.916;2024-01-30T08:41:15;17.43;;;11.70;;
17796;SDS011;55596;53.554;9.916;2024-01-30T08:43:42;18.47;;;11.97;;
17796;SDS011;55596;53.554;9.916;2024-01-30T08:46:10;16.47;;;11.50;;
17796;SDS011;55596;53.554;9.916;2024-01-30T08:48:38;17.47;;;12.47;;
17796;SDS011;55596;53.554;9.916;2024-01-30T08:51:05;15.57;;;11.50;;
17796;SDS011;55596;53.554;9.916;2024-01-30T08:53:33;17.00;;;12.07;;
17796;SDS011;55596;53.554;9.916;2024-01-30T08:56:01;17.10;;;12.07;;
17796;SDS011;55596;53.554;9.916;2024-01-30T08:58:29;19.37;;;12.03;;
17796;SDS011;55596;53.554;9.916;2024-01-30T09:00:56;20.07;;;12.73;;
17796;SDS011;55596;53.554;9.916;2024-01-30T09:03:23;20.87;;;12.47;;
17796;SDS011;55596;53.554;9.916;2024-01-30T09:05:50;18.00;;;12.53;;
17796;SDS011;55596;53.554;9.916;2024-01-30T09:08:17;15.93;;;11.87;;
17796;SDS011;55596;53.554;9.916;2024-01-30T09:10:44;18.47;;;12.53;;
17796;SDS011;55596;53.554;9.916;2024-01-30T09:13:11;15.77;;;11.40;;
17796;SDS011;55596;53.554;9.916;2024-01-30T09:15:40;14.73;;;11.67;;
17796;SDS011;55596;53.554;9.916;2024-01-30T09:18:07;17.33;;;11.57;;
17796;SDS011;55596;53.554;9.916;2024-01-30T09:20:34;19.00;;;12.20;;
17796;SDS011;55596;53.554;9.916;2024-01-30T09:23:01;15.60;;;11.47;;
17796;SDS011;55596;53.554;9.916;2024-01-30T09:25:28;15.83;;;11.50;;
17796;SDS011;55596;53.554;9.916;2024-01-30T09:27:55;18.23;;;11.53;;
17796;SDS011;55596;53.554;9.916;2024-01-30T09:30:23;14.27;;;11.43;;
17796;SDS011;55596;53.554;9.916;2024-01-30T09:32:51;18.13;;;11.33;;
17796;SDS011;55596;53.554;9.916;2024-01-30T09:35:18;15.03;;;11.60;;
17796;SDS011;55596;53.554;9.916;2024-01-30T09:37:45;17.57;;;11.87;;
17796;SDS011;55596;53.554;9.916;2024-01-30T09:40:13;20.47;;;11.43;;
17796;SDS011;55596;53.554;9.916;2024-01-30T09:42:43;16.77;;;11.10;;
17796;SDS011;55596;53.554;9.916;2024-01-30T09:45:13;14.00;;;10.67;;
17796;SDS011;55596;53.554;9.916;2024-01-30T09:47:41;20.53;;;11.13;;
17796;SDS011;55596;53.554;9.916;2024-01-30T09:50:10;12.80;;;10.83;;
17796;SDS011;55596;53.554;9.916;2024-01-30T09:52:37;23.20;;;11.10;;
17796;SDS011;55596;53.554;9.916;2024-01-30T09:55:05;17.80;;;12.10;;
17796;SDS011;55596;53.554;9.916;2024-01-30T09:57:32;16.00;;;11.20;;
17796;SDS011;55596;53.554;9.916;2024-01-30T09:59:59;19.23;;;11.33;;
17796;SDS011;55596;53.554;9.916;2024-01-30T10:02:27;15.10;;;10.67;;
17796;SDS011;55596;53.554;9.916;2024-01-30T10:04:54;14.90;;;10.63;;
17796;SDS011;55596;53.554;9.916;2024-01-30T10:07:22;16.27;;;10.93;;
17796;SDS011;55596;53.554;9.916;2024-01-30T10:09:49;14.50;;;11.17;;
17796;SDS011;55596;53.554;9.916;2024-01-30T10:12:16;14.43;;;10.97;;
17796;SDS011;55596;53.554;9.916;2024-01-30T10:14:45;17.17;;;11.77;;
17796;SDS011;55596;53.554;9.916;2024-01-30T10:17:12;18.33;;;11.03;;
17796;SDS011;55596;53.554;9.916;2024-01-30T10:19:39;27.20;;;12.27;;
17796;SDS011;55596;53.554;9.916;2024-01-30T10:22:07;15.90;;;11.30;;
17796;SDS011;55596;53.554;9.916;2024-01-30T10:24:35;16.70;;;11.53;;
17796;SDS011;55596;53.554;9.916;2024-01-30T10:27:03;16.63;;;10.93;;
17796;SDS011;55596;53.554;9.916;2024-01-30T10:29:32;16.30;;;10.60;;
17796;SDS011;55596;53.554;9.916;2024-01-30T10:31:59;16.53;;;10.90;;
17796;SDS011;55596;53.554;9.916;2024-01-30T10:34:26;17.43;;;10.83;;
17796;SDS011;55596;53.554;9.916;2024-01-30T10:36:57;28.20;;;11.27;;
17796;SDS011;55596;53.554;9.916;2024-01-30T10:39:27;14.60;;;10.90;;
17796;SDS011;55596;53.554;9.916;2024-01-30T10:41:58;15.37;;;11.03;;
17796;SDS011;55596;53.554;9.916;2024-01-30T10:44:28;18.50;;;11.07;;
17796;SDS011;55596;53.554;9.916;2024-01-30T10:46:59;18.03;;;11.10;;
17796;SDS011;55596;53.554;9.916;2024-01-30T10:49:27;18.83;;;11.50;;
17796;SDS011;55596;53.554;9.916;2024-01-30T10:51:55;21.17;;;10.47;;
17796;SDS011;55596;53.554;9.916;2024-01-30T10:54:23;17.47;;;11.30;;
17796;SDS011;55596;53.554;9.916;2024-01-30T10:56:51;12.53;;;9.53;;
17796;SDS011;55596;53.554;9.916;2024-01-30T10:59:20;18.43;;;10.87;;
17796;SDS011;55596;53.554;9.916;2024-01-30T11:01:49;14.07;;;9.30;;
17796;SDS011;55596;53.554;9.916;2024-01-30T11:04:16;14.50;;;9.60;;
17796;SDS011;55596;53.554;9.916;2024-01-30T11:06:43;12.90;;;9.03;;
17796;SDS011;55596;53.554;9.916;2024-01-30T11:09:10;14.37;;;9.50;;
17796;SDS011;55596;53.554;9.916;2024-01-30T11:11:48;16.00;;;9.57;;
17796;SDS011;55596;53.554;9.916;2024-01-30T11:14:16;12.70;;;9.03;;
17796;SDS011;55596;53.554;9.916;2024-01-30T11:16:44;12.63;;;9.17;;
17796;SDS011;55596;53.554;9.916;2024-01-30T11:19:13;13.93;;;8.67;;
17796;SDS011;55596;53.554;9.916;2024-01-30T11:21:41;10.53;;;8.70;;
17796;SDS011;55596;53.554;9.916;2024-01-30T11:24:08;13.93;;;8.60;;
17796;SDS011;55596;53.554;9.916;2024-01-30T11:26:36;13.97;;;8.00;;
17796;SDS011;55596;53.554;9.916;2024-01-30T11:29:03;12.97;;;8.83;;
17796;SDS011;55596;53.554;9.916;2024-01-30T11:31:30;17.10;;;8.57;;
17796;SDS011;55596;53.554;9.916;2024-01-30T11:33:58;12.20;;;7.97;;
17796;SDS011;55596;53.554;9.916;2024-01-30T11:36:26;11.87;;;8.63;;
17796;SDS011;55596;53.554;9.916;2024-01-30T11:38:53;9.27;;;7.93;;
17796;SDS011;55596;53.554;9.916;2024-01-30T11:41:20;11.30;;;8.60;;
17796;SDS011;55596;53.554;9.916;2024-01-30T11:43:52;10.10;;;7.83;;
17796;SDS011;55596;53.554;9.916;2024-01-30T11:46:19;10.90;;;8.20;;
17796;SDS011;55596;53.554;9.916;2024-01-30T11:48:46;9.83;;;7.77;;
17796;SDS011;55596;53.554;9.916;2024-01-30T11:51:14;10.43;;;7.57;;
17796;SDS011;55596;53.554;9.916;2024-01-30T11:53:44;10.77;;;8.03;;
17796;SDS011;55596;53.554;9.916;2024-01-30T11:56:12;10.13;;;7.87;;
17796;SDS011;55596;53.554;9.916;2024-01-30T11:58:42;10.67;;;8.20;;
17796;SDS011;55596;53.554;9.916;2024-01-30T12:01:09;9.90;;;7.57;;
17796;SDS011;55596;53.554;9.916;2024-01-30T12:03:36;10.67;;;8.00;;
17796;SDS011;55596;53.554;9.916;2024-01-30T12:06:04;9.10;;;7.90;;
17796;SDS011;55596;53.554;9.916;2024-01-30T12:08:32;14.93;;;8.40;;
17796;SDS011;55596;53.554;9.916;2024-01-30T12:11:00;10.47;;;7.90;;
17796;SDS011;55596;53.554;9.916;2024-01-30T12:13:30;11.73;;;8.37;;
17796;SDS011;55596;53.554;9.916;2024-01-30T12:15:57;11.00;;;8.20;;
17796;SDS011;55596;53.554;9.916;2024-01-30T12:18:24;11.03;;;8.23;;
17796;SDS011;55596;53.554;9.916;2024-01-30T12:20:57;11.43;;;7.83;;
17796;SDS011;55596;53.554;9.916;2024-01-30T12:23:25;11.80;;;8.20;;
17796;SDS011;55596;53.554;9.916;2024-01-30T12:25:54;12.37;;;8.53;;
17796;SDS011;55596;53.554;9.916;2024-01-30T12:28:21;11.80;;;8.60;;
17796;SDS011;55596;53.554;9.916;2024-01-30T12:30:48;10.40;;;7.90;;
17796;SDS011;55596;53.554;9.916;2024-01-30T12:33:18;10.43;;;8.10;;
17796;SDS011;55596;53.554;9.916;2024-01-30T12:35:45;10.30;;;8.33;;
17796;SDS011;55596;53.554;9.916;2024-01-30T12:38:13;11.17;;;8.27;;
17796;SDS011;55596;53.554;9.916;2024-01-30T12:40:40;12.57;;;9.10;;
17796;SDS011;55596;53.554;9.916;2024-01-30T12:43:08;11.77;;;8.07;;
17796;SDS011;55596;53.554;9.916;2024-01-30T12:45:35;13.57;;;8.90;;
17796;SDS011;55596;53.554;9.916;2024-01-30T12:48:03;11.63;;;8.60;;
17796;SDS011;55596;53.554;9.916;2024-01-30T12:50:30;14.53;;;9.07;;
17796;SDS011;55596;53.554;9.916;2024-01-30T12:52:57;12.47;;;8.57;;
17796;SDS011;55596;53.554;9.916;2024-01-30T12:55:24;11.60;;;8.70;;
17796;SDS011;55596;53.554;9.916;2024-01-30T12:57:53;10.10;;;8.20;;
17796;SDS011;55596;53.554;9.916;2024-01-30T13:00:21;14.13;;;8.90;;
17796;SDS011;55596;53.554;9.916;2024-01-30T13:02:49;11.63;;;8.10;;
17796;SDS011;55596;53.554;9.916;2024-01-30T13:05:16;11.13;;;8.60;;
17796;SDS011;55596;53.554;9.916;2024-01-30T13:07:43;14.50;;;8.27;;
17796;SDS011;55596;53.554;9.916;2024-01-30T13:10:10;14.43;;;8.43;;
17796;SDS011;55596;53.554;9.916;2024-01-30T13:12:37;15.30;;;9.03;;
17796;SDS011;55596;53.554;9.916;2024-01-30T13:15:04;12.43;;;8.23;;
17796;SDS011;55596;53.554;9.916;2024-01-30T13:17:33;12.80;;;8.10;;
17796;SDS011;55596;53.554;9.916;2024-01-30T13:20:01;16.97;;;9.57;;
17796;SDS011;55596;53.554;9.916;2024-01-30T13:22:29;12.57;;;9.10;;
17796;SDS011;55596;53.554;9.916;2024-01-30T13:24:56;18.00;;;10.03;;
17796;SDS011;55596;53.554;9.916;2024-01-30T13:27:23;14.47;;;9.67;;
17796;SDS011;55596;53.554;9.916;2024-01-30T13:29:50;10.60;;;8.80;;
17796;SDS011;55596;53.554;9.916;2024-01-30T13:32:17;12.07;;;8.63;;
17796;SDS011;55596;53.554;9.916;2024-01-30T13:34:46;10.87;;;8.63;;
17796;SDS011;55596;53.554;9.916;2024-01-30T13:37:13;14.63;;;8.70;;
17796;SDS011;55596;53.554;9.916;2024-01-30T13:39:40;11.77;;;9.30;;
17796;SDS011;55596;53.554;9.916;2024-01-30T13:42:07;10.00;;;8.73;;
17796;SDS011;55596;53.554;9.916;2024-01-30T13:44:34;11.33;;;8.10;;
17796;SDS011;55596;53.554;9.916;2024-01-30T13:47:02;13.00;;;8.93;;
17796;SDS011;55596;53.554;9.916;2024-01-30T13:49:29;14.63;;;9.90;;
17796;SDS011;55596;53.554;9.916;2024-01-30T13:51:57;11.20;;;9.13;;
17796;SDS011;55596;53.554;9.916;2024-01-30T13:54:24;14.70;;;9.13;;
17796;SDS011;55596;53.554;9.916;2024-01-30T13:56:51;11.83;;;8.53;;
17796;SDS011;55596;53.554;9.916;2024-01-30T13:59:18;12.13;;;8.93;;
17796;SDS011;55596;53.554;9.916;2024-01-30T14:01:49;13.03;;;8.60;;
17796;SDS011;55596;53.554;9.916;2024-01-30T14:04:16;12.57;;;8.53;;
17796;SDS011;55596;53.554;9.916;2024-01-30T14:06:43;10.03;;;8.87;;
17796;SDS011;55596;53.554;9.916;2024-01-30T14:09:11;12.03;;;9.10;;
17796;SDS011;55596;53.554;9.916;2024-01-30T14:11:40;14.27;;;8.70;;
17796;SDS011;55596;53.554;9.916;2024-01-30T14:14:07;13.43;;;8.63;;
17796;SDS011;55596;53.554;9.916;2024-01-30T14:16:34;13.97;;;8.40;;
17796;SDS011;55596;53.554;9.916;2024-01-30T14:19:01;10.50;;;8.13;;
17796;SDS011;55596;53.554;9.916;2024-01-30T14:21:28;10.47;;;8.10;;
17796;SDS011;55596;53.554;9.916;2024-01-30T14:23:55;11.90;;;8.63;;
17796;SDS011;55596;53.554;9.916;2024-01-30T14:26:24;14.63;;;8.40;;
17796;SDS011;55596;53.554;9.916;2024-01-30T14:28:51;13.40;;;8.10;;